Time;durP1;ratioP1;P1;durP2;ratioP2;P2;SDS_P1;SDS_P2;PMS_P1;PMS_P2;Temp;Humidity;BMP_temperature;BMP_pressure;BME280_temperature;BME280_humidity;BME280_pressure;Samples;Min_cycle;Max_cycle;Signal;HPM_P1;HPM_P2
2022/12/15 00:38:40;;;;;;;51.72;26.13;;;;;;;1.50;60.92;100036.38;4979158;28;20068;-65
2022/12/15 00:41:08;;;;;;;46.67;25.92;;;;;;;1.31;61.53;100034.50;4995895;28;20525;-66
2022/12/15 00:43:36;;;;;;;47.53;25.27;;;;;;;1.24;61.56;100042.88;4946830;28;20065;-66
2022/12/15 00:48:51;;;;;;;47.78;25.48;;;;;;;1.43;60.87;100041.25;5015145;28;20060;-66
2022/12/15 00:51:19;;;;;;;47.47;25.75;;;;;;;1.18;62.38;100052.09;4998067;28;20050;-66
2022/12/15 01:21:31;;;;;;;46.95;26.20;;;;;;;1.23;62.35;100068.38;4994053;28;20053;-66
2022/12/15 01:23:58;;;;;;;51.78;26.48;;;;;;;1.22;62.45;100066.72;4973863;28;20051;-66
2022/12/15 01:26:25;;;;;;;49.92;27.63;;;;;;;1.23;62.40;100067.56;4985291;28;20057;-66
2022/12/15 01:28:52;;;;;;;50.88;27.70;;;;;;;1.41;62.39;100062.44;4977815;28;20520;-65
2022/12/15 01:31:20;;;;;;;47.35;25.80;;;;;;;1.20;62.52;100063.50;5002604;28;20054;-66
2022/12/15 01:33:47;;;;;;;55.50;26.73;;;;;;;1.06;63.19;100067.78;4976421;28;20046;-69
2022/12/15 01:36:14;;;;;;;48.88;26.77;;;;;;;0.97;63.18;100070.22;4976418;28;20073;-68
2022/12/15 01:38:42;;;;;;;51.20;27.08;;;;;;;0.69;64.34;100076.06;4995120;28;20099;-69
2022/12/15 01:41:11;;;;;;;50.72;27.27;;;;;;;0.87;64.81;100069.38;4995224;28;20050;-69
2022/12/15 01:43:39;;;;;;;51.17;27.27;;;;;;;0.92;64.79;100075.59;4977270;28;20133;-69
2022/12/15 01:46:09;;;;;;;47.95;26.98;;;;;;;1.05;64.02;100068.84;4977151;28;20073;-69
2022/12/15 01:48:45;;;;;;;51.58;28.42;;;;;;;1.03;64.03;100079.16;4992643;28;20077;-69
2022/12/15 01:51:32;;;;;;;49.22;27.15;;;;;;;1.03;64.26;100073.72;4993914;28;20519;-69
2022/12/15 01:54:08;;;;;;;50.65;26.50;;;;;;;1.12;64.16;100066.72;4994019;28;20073;-69
2022/12/15 01:56:39;;;;;;;46.72;26.52;;;;;;;1.04;64.20;100078.91;4977932;28;20065;-69
2022/12/15 01:59:08;;;;;;;51.08;27.20;;;;;;;1.27;64.00;100082.22;4997724;28;20164;-68
2022/12/15 02:01:35;;;;;;;51.37;26.93;;;;;;;1.12;63.94;100083.81;4968333;28;20130;-68
2022/12/15 02:04:03;;;;;;;50.72;26.80;;;;;;;1.20;63.99;100071.63;5008266;28;20049;-69
2022/12/15 02:06:30;;;;;;;55.35;26.83;;;;;;;1.18;63.78;100071.06;4985740;28;20066;-69
2022/12/15 02:08:58;;;;;;;47.22;26.98;;;;;;;1.10;63.80;100068.88;4994453;28;20065;-68
2022/12/15 02:11:50;;;;;;;59.30;27.65;;;;;;;1.00;63.65;100063.44;4994222;28;20053;-68
2022/12/15 02:14:25;;;;;;;43.83;25.85;;;;;;;0.99;64.39;100064.53;4995353;28;20061;-69
2022/12/15 02:17:05;;;;;;;52.42;27.77;;;;;;;1.04;64.26;100067.25;4961558;28;20142;-69
2022/12/15 02:19:54;;;;;;;53.00;27.60;;;;;;;0.76;64.75;100075.81;4993975;28;20054;-68
2022/12/15 02:22:24;;;;;;;48.70;26.48;;;;;;;0.92;64.73;100072.88;4967038;28;20073;-69
2022/12/15 02:25:04;;;;;;;62.45;27.05;;;;;;;1.01;64.59;100074.00;4975583;28;20050;-69
2022/12/15 02:28:09;;;;;;;47.00;26.23;;;;;;;0.94;64.56;100073.44;4993817;28;20050;-69
2022/12/15 02:34:05;;;;;;;52.05;28.40;;;;;;;0.47;66.33;100080.03;4933998;29;20059;-69
2022/12/15 02:36:38;;;;;;;54.35;26.90;;;;;;;0.58;66.75;100076.25;4977587;28;20453;-70
2022/12/15 02:39:05;;;;;;;53.67;28.58;;;;;;;0.48;66.36;100077.03;4977837;28;20050;-70
2022/12/15 02:41:44;;;;;;;54.35;29.10;;;;;;;0.29;67.61;100073.16;4989419;28;20058;-68
2022/12/15 02:44:18;;;;;;;54.85;28.80;;;;;;;0.21;67.79;100067.41;4981322;28;20046;-68
2022/12/15 02:47:00;;;;;;;52.65;29.25;;;;;;;0.14;67.81;100083.06;4998273;28;20050;-68
2022/12/15 02:49:50;;;;;;;56.22;29.35;;;;;;;0.05;68.12;100085.44;4969963;28;20058;-69
2022/12/15 02:52:35;;;;;;;53.15;27.70;;;;;;;0.08;68.84;100093.03;4990004;28;20051;-68
2022/12/15 02:55:18;;;;;;;53.50;29.02;;;;;;;0.26;67.75;100106.19;4998334;28;20073;-68
2022/12/15 02:57:58;;;;;;;59.17;28.95;;;;;;;0.17;67.23;100106.91;4980602;28;20433;-68
2022/12/15 03:00:27;;;;;;;53.60;28.85;;;;;;;0.06;68.16;100088.94;4998214;28;20051;-69
2022/12/15 03:02:54;;;;;;;56.78;29.65;;;;;;;-0.16;68.79;100089.88;4987236;28;20042;-69
2022/12/15 03:05:23;;;;;;;54.22;28.45;;;;;;;0.13;68.50;100089.53;5015914;28;20049;-69
2022/12/15 03:07:52;;;;;;;50.65;28.52;;;;;;;0.09;67.86;100088.47;4996972;28;20057;-69
2022/12/15 03:10:22;;;;;;;61.25;29.70;;;;;;;0.09;67.94;100078.41;4980250;28;20054;-69
2022/12/15 03:12:50;;;;;;;53.17;30.38;;;;;;;-0.26;69.17;100072.75;4976320;28;20495;-68
2022/12/15 03:15:18;;;;;;;55.53;30.25;;;;;;;-0.14;68.76;100070.69;4976720;28;20059;-69
2022/12/15 03:17:46;;;;;;;56.08;29.63;;;;;;;0.18;68.66;100076.03;4964543;28;20449;-70
2022/12/15 03:20:13;;;;;;;54.85;29.27;;;;;;;0.03;68.29;100085.69;4998157;28;20085;-70
2022/12/15 03:22:41;;;;;;;55.03;28.85;;;;;;;0.38;67.46;100087.00;4992421;28;20058;-69
2022/12/15 03:25:09;;;;;;;51.88;29.67;;;;;;;0.10;67.88;100074.66;4978307;28;20410;-69
2022/12/15 03:27:36;;;;;;;52.05;29.33;;;;;;;0.33;67.82;100074.22;4995517;28;20057;-68
2022/12/15 03:30:04;;;;;;;55.83;29.48;;;;;;;0.17;67.85;100075.25;4997825;28;20057;-69
2022/12/15 03:32:32;;;;;;;49.50;28.48;;;;;;;0.05;68.02;100077.34;4984763;28;20054;-69
2022/12/15 03:34:59;;;;;;;54.25;28.98;;;;;;;0.08;67.81;100075.97;4997880;28;20055;-70
2022/12/15 03:37:27;;;;;;;49.85;28.05;;;;;;;0.02;68.36;100087.88;5014734;28;20045;-69
2022/12/15 03:39:54;;;;;;;54.55;28.77;;;;;;;0.16;67.84;100081.72;5017055;28;20396;-68
2022/12/15 03:45:08;;;;;;;49.35;27.88;;;;;;;0.12;67.97;100069.81;4999301;28;20057;-68
2022/12/15 03:47:40;;;;;;;53.60;29.20;;;;;;;-0.08;68.51;100061.53;4997659;28;20058;-70
2022/12/15 03:50:08;;;;;;;62.58;30.65;;;;;;;-0.28;69.02;100067.59;4996798;28;20057;-68
2022/12/15 03:52:36;;;;;;;51.42;29.35;;;;;;;-0.26;69.69;100070.03;4979188;28;20757;-68
2022/12/15 03:55:04;;;;;;;54.85;28.33;;;;;;;-0.01;69.17;100073.78;4979973;28;20050;-68
2022/12/15 03:57:31;;;;;;;59.22;29.65;;;;;;;0.16;68.63;100070.09;4998993;28;20038;-69
2022/12/15 03:59:58;;;;;;;55.88;30.00;;;;;;;0.26;68.19;100086.41;5015766;28;20050;-69
2022/12/15 04:02:26;;;;;;;52.17;27.75;;;;;;;0.24;67.89;100083.13;4982066;28;20054;-69
2022/12/15 04:04:53;;;;;;;54.35;30.23;;;;;;;0.05;68.64;100085.44;5016953;28;20058;-73
2022/12/15 04:07:21;;;;;;;52.42;29.40;;;;;;;0.09;68.53;100088.47;4998516;28;20039;-69
2022/12/15 04:09:48;;;;;;;57.42;29.35;;;;;;;0.05;67.80;100092.75;4995590;28;20377;-69
2022/12/15 04:12:15;;;;;;;57.13;28.63;;;;;;;-0.03;68.83;100084.03;4995817;28;20062;-68
2022/12/15 04:14:43;;;;;;;62.30;30.13;;;;;;;-0.13;68.59;100102.09;4997056;28;20065;-68
2022/12/15 04:17:11;;;;;;;51.88;29.92;;;;;;;-0.18;69.20;100097.47;5012211;28;20396;-69
2022/12/15 04:22:26;;;;;;;55.95;30.20;;;;;;;-0.05;69.49;100085.34;5000563;28;20058;-68
2022/12/15 05:34:08;;;;;;;58.65;30.33;;;;;;;0.34;68.60;100064.22;4995655;28;20072;-69
2022/12/15 05:36:36;;;;;;;59.70;29.88;;;;;;;0.20;67.62;100061.19;4972941;28;20054;-68
2022/12/15 05:39:03;;;;;;;55.65;29.17;;;;;;;-0.16;68.75;100076.34;5014652;28;20049;-69
2022/12/15 05:41:31;;;;;;;51.92;28.88;;;;;;;-0.09;69.03;100076.16;5003916;28;20061;-69
2022/12/15 05:43:58;;;;;;;58.47;28.98;;;;;;;-0.01;68.37;100070.25;4978492;28;20050;-69
2022/12/15 05:46:25;;;;;;;53.15;29.73;;;;;;;0.15;68.34;100071.16;4986959;28;20061;-68
2022/12/15 05:48:53;;;;;;;55.50;29.13;;;;;;;0.19;67.99;100085.81;4977524;28;20046;-69
2022/12/15 05:51:20;;;;;;;56.53;30.42;;;;;;;0.31;67.59;100081.84;4993155;28;20050;-69
2022/12/15 05:53:48;;;;;;;55.58;29.02;;;;;;;0.33;67.40;100081.56;4995312;28;20046;-69
2022/12/15 05:56:15;;;;;;;56.65;30.42;;;;;;;0.20;67.67;100076.59;4994809;28;20058;-68
2022/12/15 05:58:42;;;;;;;53.90;28.23;;;;;;;0.28;67.53;100086.97;4977909;28;20050;-68
2022/12/15 06:01:14;;;;;;;54.80;29.13;;;;;;;0.68;67.03;100093.38;4977801;28;20046;-69
2022/12/15 06:03:41;;;;;;;53.95;29.17;;;;;;;0.44;67.42;100094.91;5007085;28;20508;-70
2022/12/15 06:06:10;;;;;;;53.28;28.40;;;;;;;0.44;66.75;100088.66;5006562;28;20046;-69
2022/12/15 06:08:40;;;;;;;55.22;28.73;;;;;;;0.49;66.93;100099.53;4977102;28;20888;-69
2022/12/15 06:11:09;;;;;;;54.78;28.40;;;;;;;0.56;66.10;100100.13;4984745;28;20061;-69
2022/12/15 06:13:37;;;;;;;53.33;29.75;;;;;;;0.36;67.44;100084.56;5001586;28;20068;-69
2022/12/15 06:16:24;;;;;;;51.85;28.75;;;;;;;0.43;66.71;100081.63;5011505;28;20413;-69
2022/12/15 06:18:54;;;;;;;54.03;28.90;;;;;;;0.47;67.03;100082.72;4999397;28;20050;-69
2022/12/15 06:21:27;;;;;;;53.33;29.20;;;;;;;0.41;66.60;100081.88;4998306;28;20058;-70
2022/12/15 06:23:56;;;;;;;55.22;30.08;;;;;;;0.53;66.40;100085.19;4977285;28;20524;-71
2022/12/15 06:26:26;;;;;;;54.88;28.33;;;;;;;0.36;66.01;100094.56;4972112;28;20065;-69
2022/12/15 06:28:55;;;;;;;52.08;29.05;;;;;;;0.36;66.51;100100.00;4999258;28;20042;-69
2022/12/15 06:31:25;;;;;;;53.38;28.23;;;;;;;0.29;67.04;100094.00;4997998;28;20054;-69
2022/12/15 06:33:54;;;;;;;54.78;27.98;;;;;;;0.39;66.39;100103.00;4981132;28;20050;-70
2022/12/15 06:36:29;;;;;;;52.47;28.25;;;;;;;0.38;66.57;100097.84;4996878;28;20073;-70
2022/12/15 06:38:59;;;;;;;50.72;28.55;;;;;;;0.35;65.74;100096.47;4998805;28;20046;-69
2022/12/15 06:41:29;;;;;;;52.42;28.70;;;;;;;0.23;66.90;100095.84;4984231;28;20062;-69
2022/12/15 06:43:56;;;;;;;62.67;30.10;;;;;;;0.34;66.65;100102.16;4963404;28;20541;-69
2022/12/15 06:46:25;;;;;;;55.83;29.50;;;;;;;0.39;66.95;100102.16;4988567;28;20054;-68
2022/12/15 06:48:52;;;;;;;56.40;28.95;;;;;;;0.51;66.85;100105.50;5000376;28;20054;-69
2022/12/15 06:51:20;;;;;;;62.58;29.45;;;;;;;0.48;66.52;100109.56;5015661;28;20042;-68
2022/12/15 06:53:47;;;;;;;60.65;29.13;;;;;;;0.15;67.14;100109.06;4995357;28;20069;-69
2022/12/15 06:56:23;;;;;;;56.72;29.02;;;;;;;-0.03;67.57;100111.09;4997656;28;20061;-68
2022/12/15 06:59:00;;;;;;;59.92;29.73;;;;;;;-0.02;67.94;100118.13;4980560;28;20054;-69
2022/12/15 07:01:28;;;;;;;53.75;28.67;;;;;;;0.03;67.76;100111.97;4979915;28;20452;-69
2022/12/15 07:03:58;;;;;;;59.80;30.55;;;;;;;0.08;68.14;100116.59;5005453;28;20496;-69
2022/12/15 07:06:27;;;;;;;51.63;29.48;;;;;;;0.29;68.11;100113.78;5007827;28;20042;-70
2022/12/15 07:08:55;;;;;;;59.70;29.55;;;;;;;0.35;67.62;100104.59;4996970;28;20054;-70
2022/12/15 07:11:23;;;;;;;59.03;30.15;;;;;;;0.41;67.50;100117.09;4948562;28;20057;-69
2022/12/15 07:13:51;;;;;;;58.55;30.17;;;;;;;0.46;66.73;100114.41;4996891;28;20058;-71
2022/12/15 07:16:20;;;;;;;57.08;29.17;;;;;;;0.13;67.90;100125.56;4964562;28;20428;-68
2022/12/15 07:18:50;;;;;;;56.90;28.70;;;;;;;0.15;67.38;100122.59;4981455;28;20053;-69
2022/12/15 07:21:17;;;;;;;66.38;30.67;;;;;;;-0.10;67.89;100126.75;4979996;28;20054;-69
2022/12/15 07:23:44;;;;;;;57.58;30.20;;;;;;;-0.20;68.07;100134.78;4992398;28;20054;-70
2022/12/15 07:26:22;;;;;;;59.85;29.38;;;;;;;-0.11;68.50;100141.38;4972173;28;20065;-71
2022/12/15 07:28:50;;;;;;;60.25;29.08;;;;;;;0.05;67.81;100141.47;4998053;28;20058;-70
2022/12/15 07:31:17;;;;;;;52.17;29.80;;;;;;;0.11;67.56;100149.38;4997678;28;20050;-68
2022/12/15 07:33:47;;;;;;;55.42;29.88;;;;;;;0.00;67.98;100151.19;4996272;28;20055;-70
2022/12/15 07:36:14;;;;;;;56.78;30.73;;;;;;;-0.22;68.32;100157.75;4976889;28;20057;-69
2022/12/15 07:38:44;;;;;;;55.80;29.02;;;;;;;-0.11;68.10;100160.31;4996560;28;20057;-69
2022/12/15 07:41:18;;;;;;;52.28;29.08;;;;;;;0.14;67.97;100169.72;4979467;28;20633;-68
2022/12/15 07:43:46;;;;;;;56.60;29.60;;;;;;;-0.05;67.99;100169.25;4972011;28;20064;-68
2022/12/15 07:46:14;;;;;;;63.97;31.25;;;;;;;-0.07;67.68;100171.44;4997860;28;20042;-68
2022/12/15 07:48:42;;;;;;;68.70;32.72;;;;;;;0.22;67.38;100158.41;4999037;28;20424;-67
2022/12/15 07:51:09;;;;;;;57.30;30.85;;;;;;;0.20;66.66;100155.13;5008694;28;20042;-68
2022/12/15 07:53:46;;;;;;;61.05;31.38;;;;;;;0.36;66.50;100168.53;4978813;28;20066;-67
2022/12/15 07:56:14;;;;;;;57.05;29.80;;;;;;;0.28;66.33;100158.16;4996127;28;20058;-67
2022/12/15 07:58:41;;;;;;;56.20;29.77;;;;;;;0.54;67.58;100161.88;4997443;28;20057;-67
2022/12/15 08:01:11;;;;;;;55.25;29.63;;;;;;;0.88;66.78;100165.88;4996979;28;20042;-67
2022/12/15 08:03:38;;;;;;;;;;;;;;;0.58;65.52;100171.09;4995709;28;20046;-66
2022/12/15 08:06:11;;;;;;;58.00;29.63;;;;;;;0.41;65.51;100170.44;4999799;28;20289;-66
2022/12/15 08:08:39;;;;;;;66.80;30.63;;;;;;;0.31;66.06;100181.22;4978901;28;20050;-69
2022/12/15 08:11:10;;;;;;;70.80;31.63;;;;;;;0.51;66.85;100190.31;4999234;28;20094;-68
2022/12/15 08:13:38;;;;;;;60.90;29.88;;;;;;;0.78;67.17;100201.06;4978257;28;20069;-68
2022/12/15 08:16:26;;;;;;;54.95;27.77;;;;;;;1.15;65.48;100207.22;4982352;28;20046;-68
2022/12/15 08:18:55;;;;;;;54.45;29.05;;;;;;;1.11;65.61;100204.22;4997241;28;20050;-68
2022/12/15 08:21:23;;;;;;;56.92;30.00;;;;;;;1.03;64.26;100198.47;4985156;28;20077;-68
2022/12/15 08:23:50;;;;;;;62.25;29.13;;;;;;;0.97;64.19;100202.25;4979243;28;20051;-68
2022/12/15 08:26:18;;;;;;;54.22;29.05;;;;;;;0.90;64.07;100210.63;4979238;28;20066;-67
2022/12/15 08:28:53;;;;;;;58.65;31.95;;;;;;;0.70;63.67;100212.38;4979530;28;20473;-67
2022/12/15 08:31:21;;;;;;;61.17;29.95;;;;;;;0.46;64.53;100208.41;4996265;28;20050;-65
2022/12/15 08:33:49;;;;;;;57.87;30.40;;;;;;;0.33;65.27;100217.78;4994347;28;20081;-66
2022/12/15 08:36:18;;;;;;;53.47;28.92;;;;;;;0.28;65.48;100217.75;4976624;28;20053;-67
2022/12/15 08:38:46;;;;;;;58.15;30.65;;;;;;;0.35;65.65;100212.13;4994979;28;20378;-68
2022/12/15 08:41:14;;;;;;;55.25;30.27;;;;;;;0.49;65.72;100205.19;4976945;28;20053;-69
2022/12/15 08:43:42;;;;;;;53.78;30.15;;;;;;;0.77;65.26;100210.25;4990700;28;20088;-67
2022/12/15 08:46:17;;;;;;;61.55;31.45;;;;;;;-0.02;66.12;100207.47;4975493;28;20057;-68
2022/12/15 08:48:45;;;;;;;56.75;31.25;;;;;;;0.02;66.72;100206.97;4961731;28;20062;-68
2022/12/15 08:51:12;;;;;;;58.80;30.95;;;;;;;0.16;66.43;100202.78;4964002;28;20038;-66
2022/12/15 08:53:39;;;;;;;56.45;30.63;;;;;;;0.36;65.77;100201.03;4994840;28;20046;-66
2022/12/15 08:56:14;;;;;;;58.53;30.30;;;;;;;0.60;65.26;100202.28;4976028;28;20050;-68
2022/12/15 08:58:42;;;;;;;60.00;29.20;;;;;;;0.79;64.56;100208.91;4988482;28;20051;-71
2022/12/15 09:01:19;;;;;;;59.78;29.85;;;;;;;0.74;64.69;100202.63;5003364;28;20138;-71
2022/12/15 09:03:52;;;;;;;55.75;30.40;;;;;;;0.78;64.59;100214.59;4999130;28;20629;-67
2022/12/15 09:06:26;;;;;;;56.35;29.10;;;;;;;0.72;63.67;100202.09;4980347;28;20073;-69
2022/12/15 09:08:58;;;;;;;58.42;28.90;;;;;;;0.56;63.72;100198.47;4975701;28;20507;-67
2022/12/15 09:11:27;;;;;;;52.67;28.88;;;;;;;0.67;64.22;100207.47;4977057;28;20601;-67
2022/12/15 09:13:55;;;;;;;66.07;31.65;;;;;;;0.76;64.02;100206.75;4993262;28;20058;-69
2022/12/15 09:16:25;;;;;;;57.88;29.58;;;;;;;0.86;63.56;100205.97;4994135;28;20393;-68
2022/12/15 09:18:54;;;;;;;57.25;29.65;;;;;;;0.68;63.39;100215.34;4989209;28;20393;-67
2022/12/15 09:21:24;;;;;;;57.10;30.45;;;;;;;0.65;63.80;100210.44;4991786;28;20061;-67
2022/12/15 09:23:54;;;;;;;67.25;29.20;;;;;;;0.71;64.03;100219.44;4972647;28;20057;-67
2022/12/15 09:26:22;;;;;;;57.33;31.05;;;;;;;0.65;63.51;100209.63;4987407;28;20052;-68
2022/12/15 09:28:50;;;;;;;54.85;29.73;;;;;;;0.65;63.18;100218.56;4965190;28;20137;-68
2022/12/15 09:31:21;;;;;;;51.33;29.95;;;;;;;0.75;63.38;100224.06;4994840;28;20042;-68
2022/12/15 09:33:50;;;;;;;61.20;30.50;;;;;;;0.87;63.19;100230.09;4961003;28;20536;-68
2022/12/15 09:36:18;;;;;;;60.65;31.02;;;;;;;1.06;62.75;100223.16;4978463;28;20104;-67
2022/12/15 09:38:45;;;;;;;55.92;29.30;;;;;;;1.01;62.72;100230.47;4994489;28;20144;-67
2022/12/15 09:41:13;;;;;;;54.38;30.15;;;;;;;1.20;62.20;100233.53;4994205;28;20107;-68
2022/12/15 09:43:52;;;;;;;53.58;28.70;;;;;;;0.85;62.53;100234.16;4995107;28;20054;-68
2022/12/15 09:46:59;;;;;;;59.15;30.08;;;;;;;0.82;64.02;100240.13;4996145;28;20478;-69
2022/12/15 09:49:35;;;;;;;61.28;29.55;;;;;;;0.60;63.94;100247.53;4992930;28;20401;-67
2022/12/15 09:52:05;;;;;;;57.35;30.58;;;;;;;0.75;63.25;100244.94;4993784;28;20057;-66
2022/12/15 09:54:40;;;;;;;64.15;31.50;;;;;;;1.04;62.92;100246.22;4992430;28;20057;-66
2022/12/15 09:57:26;;;;;;;56.95;29.33;;;;;;;1.21;62.15;100246.84;4972610;28;20994;-70
2022/12/15 10:00:06;;;;;;;54.47;29.58;;;;;;;1.27;62.04;100243.09;4992498;28;20379;-69
2022/12/15 10:02:55;;;;;;;59.83;30.08;;;;;;;0.92;62.68;100246.38;4989757;28;20062;-69
2022/12/15 10:05:32;;;;;;;55.53;30.23;;;;;;;0.99;62.26;100246.97;4993020;28;20042;-69
2022/12/15 10:08:22;;;;;;;54.90;30.17;;;;;;;0.82;63.60;100240.91;4994114;28;20050;-67
2022/12/15 10:11:00;;;;;;;57.25;30.38;;;;;;;0.81;63.60;100241.19;4975143;28;20054;-67
2022/12/15 10:13:34;;;;;;;59.92;31.00;;;;;;;0.58;64.16;100239.66;4993003;28;20692;-69
2022/12/15 10:16:15;;;;;;;65.05;30.95;;;;;;;0.70;63.82;100234.03;4990879;28;20050;-69
2022/12/15 10:18:59;;;;;;;67.57;30.52;;;;;;;0.85;63.38;100231.44;4974394;28;20076;-68
2022/12/15 10:21:46;;;;;;;66.03;29.95;;;;;;;0.83;63.31;100226.28;4992947;28;20042;-69
2022/12/15 10:24:19;;;;;;;57.35;30.27;;;;;;;0.92;63.57;100229.34;4977526;28;20057;-68
2022/12/15 10:27:19;;;;;;;55.72;29.25;;;;;;;1.17;62.70;100215.88;4993528;28;20050;-67
2022/12/15 10:30:10;;;;;;;63.33;31.33;;;;;;;1.42;61.99;100216.00;4975131;28;20482;-67
2022/12/15 10:33:13;;;;;;;65.15;30.27;;;;;;;1.31;62.36;100222.47;4974912;28;20058;-68
2022/12/15 10:35:42;;;;;;;52.42;28.63;;;;;;;1.33;61.49;100223.03;4991617;28;20046;-64
2022/12/15 10:41:24;;;;;;;67.80;30.77;;;;;;;1.27;62.38;100210.53;4940043;28;20075;-70
2022/12/15 10:43:53;;;;;;;60.87;29.37;;;;;;;1.26;62.26;100198.03;4946816;28;20609;-71
2022/12/15 10:46:23;;;;;;;57.72;29.38;;;;;;;1.12;62.54;100186.03;4929623;29;20047;-70
2022/12/15 10:48:53;;;;;;;55.60;29.80;;;;;;;1.48;62.08;100173.44;4931932;28;20498;-70
2022/12/15 10:51:23;;;;;;;;;;;;;;;1.76;61.30;100173.75;4930781;29;20462;-71
2022/12/15 10:54:04;;;;;;;66.07;31.05;;;;;;;1.97;60.83;100172.69;4932817;28;19930;-71
2022/12/15 10:56:32;;;;;;;63.67;30.98;;;;;;;1.72;60.64;100177.28;4931630;29;20051;-71
2022/12/15 10:59:20;;;;;;;54.85;30.40;;;;;;;1.56;61.24;100162.03;4934174;28;20071;-65
2022/12/15 11:01:47;;;;;;;56.05;30.85;;;;;;;1.48;61.75;100151.72;4922042;29;20469;-72
2022/12/15 11:04:30;;;;;;;55.17;30.98;;;;;;;1.51;61.36;100162.84;4925358;29;20062;-72
2022/12/15 11:07:00;;;;;;;58.42;31.40;;;;;;;1.25;61.78;100157.63;4934598;28;20047;-71
2022/12/15 11:09:36;;;;;;;60.00;29.48;;;;;;;1.55;61.80;100150.34;4955971;28;20063;-72
2022/12/15 11:15:22;;;;;;;68.88;32.05;;;;;;;1.60;61.24;100127.88;4952621;28;20067;-72
2022/12/15 11:17:59;;;;;;;50.65;28.15;;;;;;;1.52;61.40;100131.91;4939967;29;20070;-71
2022/12/15 11:20:32;;;;;;;62.72;30.58;;;;;;;1.36;61.64;100140.28;4920355;28;20051;-71
2022/12/15 11:23:37;;;;;;;57.72;30.58;;;;;;;1.49;61.91;100143.31;4954810;28;20047;-71
2022/12/15 11:26:17;;;;;;;65.00;30.88;;;;;;;1.29;61.80;100126.97;4954108;28;20051;-71
2022/12/15 11:28:54;;;;;;;63.15;29.67;;;;;;;1.49;61.47;100118.88;4946865;29;20450;-72
2022/12/15 11:31:39;;;;;;;60.88;29.52;;;;;;;1.60;61.08;100109.69;4959583;28;20035;-71
2022/12/15 11:34:12;;;;;;;50.63;29.55;;;;;;;1.68;61.26;100117.28;4939285;28;20505;-74
2022/12/15 11:36:52;;;;;;;51.75;29.83;;;;;;;1.47;61.72;100117.50;4953462;28;20047;-72
2022/12/15 11:39:25;;;;;;;60.97;30.67;;;;;;;1.20;62.57;100106.88;4958440;28;20303;-73
2022/12/15 11:42:02;;;;;;;68.22;30.58;;;;;;;1.42;62.54;100098.50;4954534;28;20055;-72
2022/12/15 11:44:41;;;;;;;63.92;32.40;;;;;;;1.53;62.07;100100.16;4956222;28;20055;-71
2022/12/15 11:47:32;;;;;;;88.55;35.35;;;;;;;1.45;62.73;100096.06;4936549;28;20142;-71
2022/12/15 11:50:23;;;;;;;53.10;30.95;;;;;;;1.43;62.17;100092.03;4954798;28;20070;-70
2022/12/15 11:53:05;;;;;;;63.92;29.70;;;;;;;1.36;62.16;100094.19;4953991;28;20131;-71
2022/12/15 11:55:48;;;;;;;52.72;28.63;;;;;;;1.40;62.28;100089.81;4932968;28;20059;-69
2022/12/15 11:58:35;;;;;;;49.88;28.63;;;;;;;1.47;61.86;100080.34;4937162;29;20047;-71
2022/12/15 12:01:02;;;;;;;48.63;28.35;;;;;;;1.39;62.24;100074.63;4932509;29;20058;-72
2022/12/15 12:04:01;;;;;;;55.20;26.85;;;;;;;1.57;61.95;100068.72;4947231;29;20039;-70
2022/12/15 12:06:34;;;;;;;53.60;28.25;;;;;;;1.61;61.51;100065.16;4951016;28;20054;-70
2022/12/15 12:09:12;;;;;;;46.33;26.52;;;;;;;1.84;59.61;100072.78;4941689;28;20061;-72
2022/12/15 12:11:52;;;;;;;59.13;27.00;;;;;;;1.80;60.04;100074.41;4953972;28;20051;-71
2022/12/15 12:15:08;;;;;;;51.03;26.48;;;;;;;1.86;59.16;100064.34;4908819;29;20500;-71
2022/12/15 12:17:54;;;;;;;51.40;26.90;;;;;;;1.84;58.96;100064.63;4879401;29;20052;-71
2022/12/15 12:20:23;;;;;;;49.35;27.83;;;;;;;1.92;58.75;100053.22;4937520;28;20066;-72
2022/12/15 12:23:01;;;;;;;55.28;27.17;;;;;;;1.94;58.04;100050.22;4939238;29;20058;-72
2022/12/15 12:25:30;;;;;;;44.47;25.63;;;;;;;1.83;58.38;100048.63;4939229;28;20062;-73
2022/12/15 12:28:01;;;;;;;50.03;26.17;;;;;;;1.87;57.75;100046.97;4937756;29;20055;-74
2022/12/15 12:30:34;;;;;;;46.38;26.23;;;;;;;1.98;57.93;100035.00;4939034;28;20372;-69
2022/12/15 12:33:13;;;;;;;49.58;25.00;;;;;;;1.99;57.34;100045.59;4939039;29;20040;-70
2022/12/15 12:35:55;;;;;;;47.83;24.60;;;;;;;1.99;57.68;100032.03;4956355;28;20066;-72
2022/12/15 12:38:29;;;;;;;46.13;25.40;;;;;;;1.92;57.17;100030.66;4940283;29;20055;-70
2022/12/15 12:40:58;;;;;;;46.08;25.60;;;;;;;1.99;56.69;100037.47;4953374;28;20059;-71
2022/12/15 12:43:40;;;;;;;46.58;25.15;;;;;;;2.05;56.59;100036.38;4955940;28;20059;-70
2022/12/15 12:46:23;;;;;;;49.95;24.98;;;;;;;2.11;56.01;100042.63;4952808;28;20059;-72
2022/12/15 12:48:56;;;;;;;45.25;22.27;;;;;;;4.51;52.06;100034.75;4954622;28;20050;-71
2022/12/15 12:51:35;;;;;;;49.13;24.27;;;;;;;3.34;51.28;100025.22;4935658;28;20066;-70
2022/12/15 12:54:29;;;;;;;46.53;25.13;;;;;;;2.65;52.79;100020.97;4906614;28;20085;-71
2022/12/15 12:56:57;;;;;;;45.92;23.60;;;;;;;2.26;54.30;100024.38;4950048;28;20047;-71
2022/12/15 12:59:27;;;;;;;43.92;23.70;;;;;;;2.32;54.44;100017.00;4937436;29;20055;-71
2022/12/15 13:01:56;;;;;;;39.83;22.75;;;;;;;2.47;53.94;100022.41;4950317;28;20047;-71
2022/12/15 13:04:27;;;;;;;43.95;23.38;;;;;;;2.40;54.08;100015.63;4906069;29;20066;-71
2022/12/15 13:06:54;;;;;;;45.60;23.95;;;;;;;2.43;54.36;100020.50;4936908;29;20094;-71
2022/12/15 13:09:23;;;;;;;40.83;23.63;;;;;;;2.34;54.11;100016.75;4938164;29;20054;-70
2022/12/15 13:11:57;;;;;;;41.58;23.38;;;;;;;2.40;54.17;100012.91;4953711;28;20042;-70
2022/12/15 13:14:43;;;;;;;42.33;23.67;;;;;;;2.19;54.83;100023.84;4938730;29;20514;-70
2022/12/15 13:17:38;;;;;;;45.33;23.73;;;;;;;2.40;54.33;100015.63;4936114;28;20054;-71
2022/12/15 13:20:16;;;;;;;40.42;22.75;;;;;;;2.08;55.08;100019.53;4954750;28;20051;-70
2022/12/15 13:22:44;;;;;;;44.28;23.73;;;;;;;2.11;55.23;100027.13;4932213;29;20043;-70
2022/12/15 13:25:35;;;;;;;40.47;23.58;;;;;;;2.16;55.01;100013.50;4946376;28;20374;-70
2022/12/15 13:28:38;;;;;;;40.15;23.08;;;;;;;2.35;54.79;100011.03;4953774;29;20050;-70
2022/12/15 13:31:15;;;;;;;42.40;24.45;;;;;;;2.50;54.61;100012.88;4933640;29;21589;-71
2022/12/15 13:33:49;;;;;;;50.85;25.27;;;;;;;2.29;55.40;100017.56;4949905;28;20055;-70
2022/12/15 13:36:38;;;;;;;42.80;23.63;;;;;;;2.18;55.47;100022.22;4949425;28;20055;-69
2022/12/15 13:39:11;;;;;;;43.42;22.42;;;;;;;2.02;56.09;100012.47;4953226;28;20055;-71
2022/12/15 13:41:47;;;;;;;43.20;23.75;;;;;;;2.25;56.27;100002.88;4935597;29;20050;-70
2022/12/15 13:44:46;;;;;;;41.30;22.83;;;;;;;2.43;55.05;100006.91;4908729;29;20054;-71
2022/12/15 13:47:22;;;;;;;42.15;23.02;;;;;;;2.55;54.97;100012.84;4935851;29;20062;-70
2022/12/15 13:49:59;;;;;;;44.75;23.95;;;;;;;2.57;54.84;100000.63;4949286;28;20052;-71
2022/12/15 13:52:32;;;;;;;37.13;21.55;;;;;;;2.60;54.35;99981.03;4939063;29;20051;-70
2022/12/15 13:55:25;;;;;;;37.60;21.38;;;;;;;2.60;53.61;99980.22;4952965;28;20062;-71
2022/12/15 13:58:16;;;;;;;41.65;20.25;;;;;;;2.39;52.77;100003.16;4931197;29;20047;-70
2022/12/15 14:00:52;;;;;;;38.25;19.20;;;;;;;2.27;52.77;99995.28;4949942;28;20549;-66
2022/12/15 14:03:20;;;;;;;35.13;19.95;;;;;;;2.26;52.31;99996.38;4918952;29;20059;-67
2022/12/15 14:05:56;;;;;;;39.38;20.48;;;;;;;2.33;52.23;99998.81;4947837;28;20054;-66
2022/12/15 14:08:27;;;;;;;38.95;20.95;;;;;;;2.38;52.91;99988.72;4903485;29;20510;-67
2022/12/15 14:10:57;;;;;;;39.35;20.13;;;;;;;2.55;52.44;99991.09;4934312;29;20055;-68
2022/12/15 14:13:28;;;;;;;34.42;19.38;;;;;;;2.41;51.88;99988.16;4929556;29;20056;-68
2022/12/15 14:16:03;;;;;;;35.30;19.08;;;;;;;2.42;51.92;99984.38;4934692;29;20047;-67
2022/12/15 14:18:33;;;;;;;38.03;20.75;;;;;;;2.47;52.22;99981.63;4935991;29;20055;-68